sensor_id;sensor_type;location;lat;lon;timestamp;pressure;altitude;pressure_sealevel;temperature;humidity
28626;BME280;18905;42.668;23.364;2024-02-04T00:02:03;95512.63;;;6.96;57.95
28626;BME280;18905;42.668;23.364;2024-02-04T00:04:29;95520.78;;;7.03;57.76
28626;BME280;18905;42.668;23.364;2024-02-04T00:06:54;95513.09;;;7.08;57.92
28626;BME280;18905;42.668;23.364;2024-02-04T00:09:20;95522.59;;;7.13;58.06
28626;BME280;18905;42.668;23.364;2024-02-04T00:11:45;95523.88;;;7.10;57.94
28626;BME280;18905;42.668;23.364;2024-02-04T00:14:11;95505.44;;;6.98;58.58
28626;BME280;18905;42.668;23.364;2024-02-04T00:16:37;95513.13;;;6.93;58.26
28626;BME280;18905;42.668;23.364;2024-02-04T00:19:02;95512.59;;;7.01;58.45
28626;BME280;18905;42.668;23.364;2024-02-04T00:21:27;95509.53;;;7.04;58.86
28626;BME280;18905;42.668;23.364;2024-02-04T00:23:53;95484.94;;;6.83;58.98
28626;BME280;18905;42.668;23.364;2024-02-04T00:26:18;95509.50;;;6.94;58.82
28626;BME280;18905;42.668;23.364;2024-02-04T00:28:43;95486.72;;;6.88;58.53
28626;BME280;18905;42.668;23.364;2024-02-04T00:31:09;95518.00;;;7.10;58.39
28626;BME280;18905;42.668;23.364;2024-02-04T00:33:34;95510.56;;;6.93;58.41
28626;BME280;18905;42.668;23.364;2024-02-04T00:36:00;95507.50;;;6.96;58.78
28626;BME280;18905;42.668;23.364;2024-02-04T00:38:26;95496.72;;;6.84;58.81
28626;BME280;18905;42.668;23.364;2024-02-04T00:40:51;95508.00;;;6.93;59.08
28626;BME280;18905;42.668;23.364;2024-02-04T00:43:18;95512.34;;;6.98;59.35
28626;BME280;18905;42.668;23.364;2024-02-04T00:45:43;95513.38;;;6.97;59.06
28626;BME280;18905;42.668;23.364;2024-02-04T00:48:08;95515.44;;;7.05;59.15
28626;BME280;18905;42.668;23.364;2024-02-04T00:50:34;95506.19;;;7.09;59.25
28626;BME280;18905;42.668;23.364;2024-02-04T00:52:59;95491.84;;;7.03;59.09
28626;BME280;18905;42.668;23.364;2024-02-04T00:55:24;95508.75;;;7.04;59.63
28626;BME280;18905;42.668;23.364;2024-02-04T00:57:50;95505.19;;;7.10;58.78
28626;BME280;18905;42.668;23.364;2024-02-04T01:00:15;95511.31;;;7.09;58.63
28626;BME280;18905;42.668;23.364;2024-02-04T01:02:41;95493.38;;;6.99;59.05
28626;BME280;18905;42.668;23.364;2024-02-04T01:05:07;95486.97;;;6.86;59.32
28626;BME280;18905;42.668;23.364;2024-02-04T01:07:32;95508.75;;;6.99;60.00
28626;BME280;18905;42.668;23.364;2024-02-04T01:09:58;95488.28;;;6.94;60.01
28626;BME280;18905;42.668;23.364;2024-02-04T01:12:23;95492.38;;;7.05;59.84
28626;BME280;18905;42.668;23.364;2024-02-04T01:14:48;95509.53;;;7.14;59.10
28626;BME280;18905;42.668;23.364;2024-02-04T01:17:14;95499.00;;;7.06;60.02
28626;BME280;18905;42.668;23.364;2024-02-04T01:19:39;95514.41;;;7.01;60.31
28626;BME280;18905;42.668;23.364;2024-02-04T01:22:05;95496.97;;;6.93;60.20
28626;BME280;18905;42.668;23.364;2024-02-04T01:24:31;95499.53;;;6.98;60.32
28626;BME280;18905;42.668;23.364;2024-02-04T01:26:56;95489.56;;;6.96;60.36
28626;BME280;18905;42.668;23.364;2024-02-04T01:29:22;95509.25;;;7.11;60.00
28626;BME280;18905;42.668;23.364;2024-02-04T01:31:47;95488.25;;;6.99;60.36
28626;BME280;18905;42.668;23.364;2024-02-04T01:34:12;95503.13;;;7.07;60.86
28626;BME280;18905;42.668;23.364;2024-02-04T01:36:38;95492.88;;;6.97;60.74
28626;BME280;18905;42.668;23.364;2024-02-04T01:39:03;95488.28;;;6.94;60.61
28626;BME280;18905;42.668;23.364;2024-02-04T01:41:30;95492.63;;;6.93;61.17
28626;BME280;18905;42.668;23.364;2024-02-04T01:43:55;95477.25;;;6.93;60.76
28626;BME280;18905;42.668;23.364;2024-02-04T01:46:21;95481.34;;;6.99;61.01
28626;BME280;18905;42.668;23.364;2024-02-04T01:48:47;95471.63;;;6.96;61.32
28626;BME280;18905;42.668;23.364;2024-02-04T01:51:14;95485.72;;;6.94;61.67
28626;BME280;18905;42.668;23.364;2024-02-04T01:53:42;95491.34;;;7.01;61.26
28626;BME280;18905;42.668;23.364;2024-02-04T01:56:10;95479.31;;;6.91;61.34
28626;BME280;18905;42.668;23.364;2024-02-04T01:58:35;95491.34;;;7.01;61.72
28626;BME280;18905;42.668;23.364;2024-02-04T02:01:01;95481.06;;;7.11;61.65
28626;BME280;18905;42.668;23.364;2024-02-04T02:03:28;95486.22;;;7.21;61.01
28626;BME280;18905;42.668;23.364;2024-02-04T02:05:56;95478.25;;;7.17;61.42
28626;BME280;18905;42.668;23.364;2024-02-04T02:08:21;95482.59;;;7.22;60.96
28626;BME280;18905;42.668;23.364;2024-02-04T02:10:47;95488.75;;;7.31;61.05
28626;BME280;18905;42.668;23.364;2024-02-04T02:13:34;95468.75;;;7.33;60.75
28626;BME280;18905;42.668;23.364;2024-02-04T02:16:17;95460.03;;;7.34;61.14
28626;BME280;18905;42.668;23.364;2024-02-04T02:18:49;95455.41;;;7.36;61.24
28626;BME280;18905;42.668;23.364;2024-02-04T02:26:49;95460.03;;;7.39;61.10
28626;BME280;18905;42.668;23.364;2024-02-04T02:29:14;95453.84;;;7.40;61.01
28626;BME280;18905;42.668;23.364;2024-02-04T02:31:40;95475.63;;;7.48;61.00
28626;BME280;18905;42.668;23.364;2024-02-04T02:34:07;95450.78;;;7.33;60.48
28626;BME280;18905;42.668;23.364;2024-02-04T02:37:03;95453.06;;;7.45;60.86
28626;BME280;18905;42.668;23.364;2024-02-04T02:39:49;95445.38;;;7.50;60.06
28626;BME280;18905;42.668;23.364;2024-02-04T02:42:21;95458.19;;;7.60;60.23
28626;BME280;18905;42.668;23.364;2024-02-04T02:44:48;95460.72;;;7.65;60.48
28626;BME280;18905;42.668;23.364;2024-02-04T02:47:15;95461.75;;;7.64;60.22
28626;BME280;18905;42.668;23.364;2024-02-04T02:49:40;95460.47;;;7.61;60.09
28626;BME280;18905;42.668;23.364;2024-02-04T02:52:06;95428.22;;;7.45;59.85
28626;BME280;18905;42.668;23.364;2024-02-04T02:54:31;95443.59;;;7.55;59.67
28626;BME280;18905;42.668;23.364;2024-02-04T02:56:56;95459.69;;;7.66;60.02
28626;BME280;18905;42.668;23.364;2024-02-04T02:59:22;95435.84;;;7.60;59.46
28626;BME280;18905;42.668;23.364;2024-02-04T03:01:47;95436.88;;;7.59;59.41
28626;BME280;18905;42.668;23.364;2024-02-04T03:04:12;95450.94;;;7.67;59.22
28626;BME280;18905;42.668;23.364;2024-02-04T03:06:38;95461.47;;;7.65;60.00
28626;BME280;18905;42.668;23.364;2024-02-04T03:09:03;95453.28;;;7.63;59.88
28626;BME280;18905;42.668;23.364;2024-02-04T03:11:29;95462.53;;;7.64;59.51
28626;BME280;18905;42.668;23.364;2024-02-04T03:13:54;95449.16;;;7.67;59.52
28626;BME280;18905;42.668;23.364;2024-02-04T03:16:20;95451.97;;;7.71;59.86
28626;BME280;18905;42.668;23.364;2024-02-04T03:18:45;95447.59;;;7.76;59.04
28626;BME280;18905;42.668;23.364;2024-02-04T03:21:15;95454.28;;;7.72;58.99
28626;BME280;18905;42.668;23.364;2024-02-04T03:23:41;95451.44;;;7.74;59.59
28626;BME280;18905;42.668;23.364;2024-02-04T03:26:07;95439.41;;;7.69;59.43
28626;BME280;18905;42.668;23.364;2024-02-04T03:28:33;95446.56;;;7.77;59.11
28626;BME280;18905;42.668;23.364;2024-02-04T03:30:58;95445.53;;;7.78;59.46
28626;BME280;18905;42.668;23.364;2024-02-04T03:33:23;95445.53;;;7.78;59.30
28626;BME280;18905;42.668;23.364;2024-02-04T03:35:49;95440.91;;;7.80;59.19
28626;BME280;18905;42.668;23.364;2024-02-04T03:38:14;95434.00;;;7.76;59.47
28626;BME280;18905;42.668;23.364;2024-02-04T03:40:40;95442.72;;;7.75;59.89
28626;BME280;18905;42.668;23.364;2024-02-04T03:43:08;95438.88;;;7.72;60.10
28626;BME280;18905;42.668;23.364;2024-02-04T03:45:35;95418.59;;;7.76;59.30
28626;BME280;18905;42.668;23.364;2024-02-04T03:48:01;95416.78;;;7.86;59.29
28626;BME280;18905;42.668;23.364;2024-02-04T03:50:27;95413.94;;;7.88;59.03
28626;BME280;18905;42.668;23.364;2024-02-04T03:52:52;95399.06;;;7.85;58.98
28626;BME280;18905;42.668;23.364;2024-02-04T03:55:18;95403.88;;;7.96;59.41
28626;BME280;18905;42.668;23.364;2024-02-04T03:57:44;95402.59;;;7.94;59.58
28626;BME280;18905;42.668;23.364;2024-02-04T04:00:09;95417.22;;;7.98;59.33
28626;BME280;18905;42.668;23.364;2024-02-04T04:02:35;95421.84;;;7.91;59.38
28626;BME280;18905;42.668;23.364;2024-02-04T04:05:00;95394.72;;;7.80;59.91
28626;BME280;18905;42.668;23.364;2024-02-04T04:07:25;95390.16;;;7.72;59.75
28626;BME280;18905;42.668;23.364;2024-02-04T04:09:51;95414.69;;;7.93;60.24
28626;BME280;18905;42.668;23.364;2024-02-04T04:12:16;95419.09;;;7.83;60.23
28626;BME280;18905;42.668;23.364;2024-02-04T04:14:41;95424.97;;;7.88;60.73
28626;BME280;18905;42.668;23.364;2024-02-04T04:17:07;95407.09;;;7.73;60.98
28626;BME280;18905;42.668;23.364;2024-02-04T04:19:32;95409.88;;;7.77;61.14
28626;BME280;18905;42.668;23.364;2024-02-04T04:22:01;95416.28;;;7.84;60.91
28626;BME280;18905;42.668;23.364;2024-02-04T04:24:27;95397.78;;;7.82;60.93
28626;BME280;18905;42.668;23.364;2024-02-04T04:26:52;95369.72;;;7.57;61.08
28626;BME280;18905;42.668;23.364;2024-02-04T04:29:17;95384.34;;;7.57;60.97
28626;BME280;18905;42.668;23.364;2024-02-04T04:31:43;95420.72;;;7.69;61.21
28626;BME280;18905;42.668;23.364;2024-02-04T04:34:08;95423.50;;;7.72;60.95
28626;BME280;18905;42.668;23.364;2024-02-04T04:36:33;95428.34;;;7.74;60.75
28626;BME280;18905;42.668;23.364;2024-02-04T04:38:59;95436.25;;;7.87;60.75
28626;BME280;18905;42.668;23.364;2024-02-04T04:41:25;95415.81;;;7.72;60.77
28626;BME280;18905;42.668;23.364;2024-02-04T04:43:50;95415.22;;;7.90;60.78
28626;BME280;18905;42.668;23.364;2024-02-04T04:46:16;95426.75;;;7.93;60.67
28626;BME280;18905;42.668;23.364;2024-02-04T04:48:41;95397.56;;;7.79;60.92
28626;BME280;18905;42.668;23.364;2024-02-04T04:51:11;95426.66;;;8.03;60.44
28626;BME280;18905;42.668;23.364;2024-02-04T04:53:37;95397.47;;;7.94;60.87
28626;BME280;18905;42.668;23.364;2024-02-04T04:56:02;95421.81;;;8.02;60.59
28626;BME280;18905;42.668;23.364;2024-02-04T04:58:28;95428.94;;;8.10;60.71
28626;BME280;18905;42.668;23.364;2024-02-04T05:00:53;95395.47;;;7.86;60.97
28626;BME280;18905;42.668;23.364;2024-02-04T05:03:18;95423.88;;;8.00;60.80
28626;BME280;18905;42.668;23.364;2024-02-04T05:05:44;95418.44;;;8.11;60.01
28626;BME280;18905;42.668;23.364;2024-02-04T05:08:11;95408.38;;;8.15;59.80
28626;BME280;18905;42.668;23.364;2024-02-04T05:10:37;95397.16;;;8.06;59.52
28626;BME280;18905;42.668;23.364;2024-02-04T05:13:02;95408.38;;;8.20;59.79
28626;BME280;18905;42.668;23.364;2024-02-04T05:15:28;95414.31;;;8.10;60.15
28626;BME280;18905;42.668;23.364;2024-02-04T05:17:55;95395.16;;;7.97;60.25
28626;BME280;18905;42.668;23.364;2024-02-04T05:20:20;95409.97;;;8.11;59.83
28626;BME280;18905;42.668;23.364;2024-02-04T05:22:46;95405.41;;;8.03;60.15
28626;BME280;18905;42.668;23.364;2024-02-04T05:25:11;95421.78;;;8.12;60.34
28626;BME280;18905;42.668;23.364;2024-02-04T05:27:37;95431.00;;;8.08;60.31
28626;BME280;18905;42.668;23.364;2024-02-04T05:30:02;95426.66;;;8.03;60.20
28626;BME280;18905;42.668;23.364;2024-02-04T05:32:28;95420.81;;;7.97;60.53
28626;BME280;18905;42.668;23.364;2024-02-04T05:34:53;95421.59;;;7.98;60.17
28626;BME280;18905;42.668;23.364;2024-02-04T05:37:19;95442.03;;;8.13;59.67
28626;BME280;18905;42.668;23.364;2024-02-04T05:39:44;95433.06;;;8.06;60.30
28626;BME280;18905;42.668;23.364;2024-02-04T05:42:10;95435.09;;;8.14;59.90
28626;BME280;18905;42.668;23.364;2024-02-04T05:44:35;95419.53;;;8.00;59.94
28626;BME280;18905;42.668;23.364;2024-02-04T05:47:00;95435.16;;;7.98;59.51
28626;BME280;18905;42.668;23.364;2024-02-04T05:49:26;95432.56;;;8.09;59.05
28626;BME280;18905;42.668;23.364;2024-02-04T05:51:51;95433.06;;;8.11;58.99
28626;BME280;18905;42.668;23.364;2024-02-04T05:54:16;95440.75;;;8.11;59.68
28626;BME280;18905;42.668;23.364;2024-02-04T05:56:42;95432.78;;;8.12;58.33
28626;BME280;18905;42.668;23.364;2024-02-04T05:59:07;95412.56;;;8.01;58.04
28626;BME280;18905;42.668;23.364;2024-02-04T06:01:33;95436.41;;;8.11;57.93
28626;BME280;18905;42.668;23.364;2024-02-04T06:03:58;95446.66;;;8.11;58.47
28626;BME280;18905;42.668;23.364;2024-02-04T06:06:23;95441.81;;;8.05;58.07
28626;BME280;18905;42.668;23.364;2024-02-04T06:08:49;95458.72;;;8.11;58.29
28626;BME280;18905;42.668;23.364;2024-02-04T06:11:15;95449.78;;;8.03;58.05
28626;BME280;18905;42.668;23.364;2024-02-04T06:13:42;95463.09;;;8.05;57.87
28626;BME280;18905;42.668;23.364;2024-02-04T06:16:08;95428.03;;;7.90;58.28
28626;BME280;18905;42.668;23.364;2024-02-04T06:18:35;95443.88;;;8.03;57.97
28626;BME280;18905;42.668;23.364;2024-02-04T06:21:06;95463.09;;;8.10;58.64
28626;BME280;18905;42.668;23.364;2024-02-04T06:23:31;95455.16;;;8.07;58.33
28626;BME280;18905;42.668;23.364;2024-02-04T06:25:57;95461.28;;;8.16;58.36
28626;BME280;18905;42.668;23.364;2024-02-04T06:28:22;95456.63;;;8.18;58.16
28626;BME280;18905;42.668;23.364;2024-02-04T06:30:48;95478.22;;;8.12;58.37
28626;BME280;18905;42.668;23.364;2024-02-04T06:33:14;95491.03;;;8.17;58.30
28626;BME280;18905;42.668;23.364;2024-02-04T06:35:39;95478.28;;;7.96;58.37
28626;BME280;18905;42.668;23.364;2024-02-04T06:38:05;95481.53;;;8.17;57.92
28626;BME280;18905;42.668;23.364;2024-02-04T06:40:30;95500.78;;;8.20;58.33
28626;BME280;18905;42.668;23.364;2024-02-04T06:42:56;95487.91;;;8.25;58.13
28626;BME280;18905;42.668;23.364;2024-02-04T06:45:21;95477.16;;;8.23;58.36
28626;BME280;18905;42.668;23.364;2024-02-04T06:47:46;95485.34;;;8.30;57.87
28626;BME280;18905;42.668;23.364;2024-02-04T06:50:12;95497.06;;;8.46;57.65
28626;BME280;18905;42.668;23.364;2024-02-04T06:52:41;95484.66;;;8.58;57.35
28626;BME280;18905;42.668;23.364;2024-02-04T06:55:07;95477.28;;;8.46;57.18
28626;BME280;18905;42.668;23.364;2024-02-04T06:57:33;95490.06;;;8.56;57.82
28626;BME280;18905;42.668;23.364;2024-02-04T06:59:58;95474.69;;;8.51;57.16
28626;BME280;18905;42.668;23.364;2024-02-04T07:02:23;95480.50;;;8.67;56.56
28626;BME280;18905;42.668;23.364;2024-02-04T07:04:49;95493.34;;;8.62;57.30
28626;BME280;18905;42.668;23.364;2024-02-04T07:07:14;95490.28;;;8.60;57.28
28626;BME280;18905;42.668;23.364;2024-02-04T07:09:40;95467.75;;;8.52;57.51
28626;BME280;18905;42.668;23.364;2024-02-04T07:12:05;95479.38;;;8.39;58.08
28626;BME280;18905;42.668;23.364;2024-02-04T07:14:31;95458.13;;;8.29;57.79
28626;BME280;18905;42.668;23.364;2024-02-04T07:16:56;95482.56;;;8.65;57.62
28626;BME280;18905;42.668;23.364;2024-02-04T07:19:21;95489.25;;;9.00;56.62
28626;BME280;18905;42.668;23.364;2024-02-04T07:21:47;95503.59;;;9.06;56.20
28626;BME280;18905;42.668;23.364;2024-02-04T07:24:12;95489.75;;;9.02;56.24
28626;BME280;18905;42.668;23.364;2024-02-04T07:26:37;95485.09;;;9.32;55.21
28626;BME280;18905;42.668;23.364;2024-02-04T07:29:05;95488.44;;;9.33;58.54
28626;BME280;18905;42.668;23.364;2024-02-04T07:31:30;95480.78;;;8.94;56.40
28626;BME280;18905;42.668;23.364;2024-02-04T07:33:56;95480.31;;;8.92;56.66
28626;BME280;18905;42.668;23.364;2024-02-04T07:36:21;95497.00;;;8.95;56.67
28626;BME280;18905;42.668;23.364;2024-02-04T07:38:50;95453.44;;;8.80;56.57
28626;BME280;18905;42.668;23.364;2024-02-04T07:41:15;95497.56;;;8.87;57.50
28626;BME280;18905;42.668;23.364;2024-02-04T07:43:41;95487.16;;;9.02;56.45
28626;BME280;18905;42.668;23.364;2024-02-04T07:46:07;95498.41;;;9.11;56.05
28626;BME280;18905;42.668;23.364;2024-02-04T07:48:33;95486.56;;;8.81;56.11
28626;BME280;18905;42.668;23.364;2024-02-04T07:50:59;95502.91;;;8.95;56.84
28626;BME280;18905;42.668;23.364;2024-02-04T07:53:25;95490.78;;;8.96;56.08
28626;BME280;18905;42.668;23.364;2024-02-04T07:55:50;95503.63;;;9.01;56.44
28626;BME280;18905;42.668;23.364;2024-02-04T07:58:16;95507.44;;;9.03;54.99
28626;BME280;18905;42.668;23.364;2024-02-04T08:00:41;95495.38;;;9.32;54.58
28626;BME280;18905;42.668;23.364;2024-02-04T08:03:07;95506.38;;;10.09;52.65
28626;BME280;18905;42.668;23.364;2024-02-04T08:05:33;95507.75;;;10.25;51.51
28626;BME280;18905;42.668;23.364;2024-02-04T08:08:00;95501.75;;;10.11;52.25
28626;BME280;18905;42.668;23.364;2024-02-04T08:10:26;95498.84;;;9.70;52.56
28626;BME280;18905;42.668;23.364;2024-02-04T08:12:51;95499.63;;;9.71;52.58
28626;BME280;18905;42.668;23.364;2024-02-04T08:15:18;95487.56;;;9.66;52.79
28626;BME280;18905;42.668;23.364;2024-02-04T08:17:43;95502.75;;;9.68;53.15
28626;BME280;18905;42.668;23.364;2024-02-04T08:20:09;95500.81;;;10.02;52.22
28626;BME280;18905;42.668;23.364;2024-02-04T08:22:34;95503.31;;;10.07;51.94
28626;BME280;18905;42.668;23.364;2024-02-04T08:25:00;95480.91;;;10.31;50.63
28626;BME280;18905;42.668;23.364;2024-02-04T08:27:26;95507.84;;;10.76;49.86
28626;BME280;18905;42.668;23.364;2024-02-04T08:29:52;95505.25;;;11.27;48.84
28626;BME280;18905;42.668;23.364;2024-02-04T08:32:17;95499.44;;;11.03;48.79
28626;BME280;18905;42.668;23.364;2024-02-04T08:34:42;95507.84;;;10.57;49.39
28626;BME280;18905;42.668;23.364;2024-02-04T08:37:08;95502.91;;;10.24;50.37
28626;BME280;18905;42.668;23.364;2024-02-04T08:39:34;95509.47;;;10.11;51.51
28626;BME280;18905;42.668;23.364;2024-02-04T08:41:59;95519.00;;;10.10;51.31
28626;BME280;18905;42.668;23.364;2024-02-04T08:44:24;95508.47;;;10.31;50.85
28626;BME280;18905;42.668;23.364;2024-02-04T08:46:50;95500.31;;;10.24;51.10
28626;BME280;18905;42.668;23.364;2024-02-04T08:49:15;95483.97;;;10.70;49.46
28626;BME280;18905;42.668;23.364;2024-02-04T08:51:40;95509.66;;;11.40;48.74
28626;BME280;18905;42.668;23.364;2024-02-04T08:54:06;95508.34;;;11.56;47.98
28626;BME280;18905;42.668;23.364;2024-02-04T08:56:31;95500.22;;;11.49;47.26
28626;BME280;18905;42.668;23.364;2024-02-04T08:58:57;95515.78;;;10.98;48.82
28626;BME280;18905;42.668;23.364;2024-02-04T09:01:24;95506.97;;;10.67;49.62
28626;BME280;18905;42.668;23.364;2024-02-04T09:03:50;95477.34;;;10.27;50.71
28626;BME280;18905;42.668;23.364;2024-02-04T09:06:15;95499.06;;;10.58;50.42
28626;BME280;18905;42.668;23.364;2024-02-04T09:08:41;95503.88;;;10.28;51.09
28626;BME280;18905;42.668;23.364;2024-02-04T09:11:06;95478.81;;;10.15;50.41
28626;BME280;18905;42.668;23.364;2024-02-04T09:13:31;95499.91;;;10.35;51.06
28626;BME280;18905;42.668;23.364;2024-02-04T09:15:57;95476.13;;;10.01;51.67
28626;BME280;18905;42.668;23.364;2024-02-04T09:18:22;95507.50;;;9.79;52.74
28626;BME280;18905;42.668;23.364;2024-02-04T09:20:48;95489.38;;;9.66;52.56
28626;BME280;18905;42.668;23.364;2024-02-04T09:23:13;95501.41;;;9.70;52.93
28626;BME280;18905;42.668;23.364;2024-02-04T09:25:38;95508.84;;;9.77;52.84
28626;BME280;18905;42.668;23.364;2024-02-04T09:28:04;95486.69;;;9.52;52.91
28626;BME280;18905;42.668;23.364;2024-02-04T09:30:29;95515.28;;;9.74;53.06
28626;BME280;18905;42.668;23.364;2024-02-04T09:32:55;95530.03;;;9.64;53.69
28626;BME280;18905;42.668;23.364;2024-02-04T09:35:20;95525.72;;;9.59;53.77
28626;BME280;18905;42.668;23.364;2024-02-04T09:37:46;95510.78;;;9.61;53.65
28626;BME280;18905;42.668;23.364;2024-02-04T09:40:12;95508.84;;;9.77;53.40
28626;BME280;18905;42.668;23.364;2024-02-04T09:42:37;95503.72;;;9.95;53.44
28626;BME280;18905;42.668;23.364;2024-02-04T09:45:03;95490.50;;;10.02;53.09
28626;BME280;18905;42.668;23.364;2024-02-04T09:47:30;95474.03;;;10.27;52.41
28626;BME280;18905;42.668;23.364;2024-02-04T09:49:57;95511.13;;;10.26;52.79
28626;BME280;18905;42.668;23.364;2024-02-04T09:52:29;95513.75;;;10.21;53.50
28626;BME280;18905;42.668;23.364;2024-02-04T09:55:00;95496.28;;;9.94;53.29
28626;BME280;18905;42.668;23.364;2024-02-04T09:57:26;95483.84;;;10.01;53.37
28626;BME280;18905;42.668;23.364;2024-02-04T09:59:51;95487.66;;;10.27;53.56
28626;BME280;18905;42.668;23.364;2024-02-04T10:02:17;95482.50;;;10.64;51.73
28626;BME280;18905;42.668;23.364;2024-02-04T10:04:43;95471.09;;;10.52;51.94
28626;BME280;18905;42.668;23.364;2024-02-04T10:07:09;95497.13;;;10.50;52.58
28626;BME280;18905;42.668;23.364;2024-02-04T10:09:34;95477.50;;;10.54;52.51
28626;BME280;18905;42.668;23.364;2024-02-04T10:11:59;95494.13;;;10.43;53.09
28626;BME280;18905;42.668;23.364;2024-02-04T10:14:25;95423.31;;;10.41;52.60
28626;BME280;18905;42.668;23.364;2024-02-04T10:16:50;95511.28;;;10.71;52.88
28626;BME280;18905;42.668;23.364;2024-02-04T10:19:16;95488.28;;;10.75;52.63
28626;BME280;18905;42.668;23.364;2024-02-04T10:21:42;95507.78;;;10.44;53.54
28626;BME280;18905;42.668;23.364;2024-02-04T10:24:07;95500.88;;;10.76;52.92
28626;BME280;18905;42.668;23.364;2024-02-04T10:26:33;95494.75;;;10.72;53.48
28626;BME280;18905;42.668;23.364;2024-02-04T10:29:03;95513.31;;;10.88;53.20
28626;BME280;18905;42.668;23.364;2024-02-04T10:31:29;95493.47;;;10.89;52.82
28626;BME280;18905;42.668;23.364;2024-02-04T10:33:55;95464.72;;;10.63;53.41
28626;BME280;18905;42.668;23.364;2024-02-04T10:36:21;95505.69;;;10.83;53.36
28626;BME280;18905;42.668;23.364;2024-02-04T10:38:46;95469.34;;;10.66;53.33
28626;BME280;18905;42.668;23.364;2024-02-04T10:41:15;95489.81;;;10.76;53.39
28626;BME280;18905;42.668;23.364;2024-02-04T10:43:42;95485.22;;;10.73;52.85
28626;BME280;18905;42.668;23.364;2024-02-04T10:46:29;95487.25;;;10.76;53.28
28626;BME280;18905;42.668;23.364;2024-02-04T10:48:55;95493.06;;;10.81;53.87
28626;BME280;18905;42.668;23.364;2024-02-04T10:51:25;95489.75;;;10.62;53.92
28626;BME280;18905;42.668;23.364;2024-02-04T10:53:58;95491.44;;;10.53;54.22
28626;BME280;18905;42.668;23.364;2024-02-04T10:56:38;95499.34;;;10.57;54.29
28626;BME280;18905;42.668;23.364;2024-02-04T10:59:07;95479.44;;;10.62;54.09
28626;BME280;18905;42.668;23.364;2024-02-04T11:01:33;95453.88;;;10.47;54.01
28626;BME280;18905;42.668;23.364;2024-02-04T11:03:59;95485.91;;;10.78;53.53
28626;BME280;18905;42.668;23.364;2024-02-04T11:06:26;95487.50;;;10.74;53.64
28626;BME280;18905;42.668;23.364;2024-02-04T11:08:52;95471.50;;;10.59;53.74
28626;BME280;18905;42.668;23.364;2024-02-04T11:11:18;95451.72;;;10.54;53.93
28626;BME280;18905;42.668;23.364;2024-02-04T11:13:47;95484.16;;;11.06;53.14
28626;BME280;18905;42.668;23.364;2024-02-04T11:27:35;95445.63;;;12.10;49.08
28626;BME280;18905;42.668;23.364;2024-02-04T11:30:01;95452.75;;;12.62;48.77
28626;BME280;18905;42.668;23.364;2024-02-04T11:32:27;95455.53;;;12.44;48.32
28626;BME280;18905;42.668;23.364;2024-02-04T11:34:56;95453.38;;;12.59;48.31
28626;BME280;18905;42.668;23.364;2024-02-04T11:37:26;95447.25;;;12.06;49.77
28626;BME280;18905;42.668;23.364;2024-02-04T11:39:52;95447.91;;;11.76;50.99
28626;BME280;18905;42.668;23.364;2024-02-04T11:42:18;95419.09;;;11.28;50.69
28626;BME280;18905;42.668;23.364;2024-02-04T11:44:46;95430.19;;;11.42;50.66
28626;BME280;18905;42.668;23.364;2024-02-04T11:47:11;95438.59;;;11.61;49.92
28626;BME280;18905;42.668;23.364;2024-02-04T11:49:36;95449.09;;;11.65;50.25
28626;BME280;18905;42.668;23.364;2024-02-04T11:52:02;95405.50;;;11.36;50.87
28626;BME280;18905;42.668;23.364;2024-02-04T11:54:28;95440.31;;;11.79;49.86
28626;BME280;18905;42.668;23.364;2024-02-04T11:56:53;95419.72;;;12.01;49.25
28626;BME280;18905;42.668;23.364;2024-02-04T11:59:23;95374.22;;;11.92;48.36
28626;BME280;18905;42.668;23.364;2024-02-04T12:02:05;95418.63;;;12.30;48.18
28626;BME280;18905;42.668;23.364;2024-02-04T12:04:31;95389.63;;;12.55;48.00
28626;BME280;18905;42.668;23.364;2024-02-04T12:06:58;95373.53;;;12.88;46.67
28626;BME280;18905;42.668;23.364;2024-02-04T12:09:24;95394.88;;;12.72;47.01
28626;BME280;18905;42.668;23.364;2024-02-04T12:11:49;95401.06;;;13.07;46.41
28626;BME280;18905;42.668;23.364;2024-02-04T12:14:15;95420.88;;;12.89;46.97
28626;BME280;18905;42.668;23.364;2024-02-04T12:16:41;95406.03;;;12.81;46.41
28626;BME280;18905;42.668;23.364;2024-02-04T12:19:07;95387.38;;;12.40;47.46
28626;BME280;18905;42.668;23.364;2024-02-04T12:21:33;95400.75;;;12.42;47.15
28626;BME280;18905;42.668;23.364;2024-02-04T12:23:59;95410.31;;;12.55;47.37
28626;BME280;18905;42.668;23.364;2024-02-04T12:26:24;95403.84;;;12.44;47.47
28626;BME280;18905;42.668;23.364;2024-02-04T12:28:50;95405.06;;;12.68;46.68
28626;BME280;18905;42.668;23.364;2024-02-04T12:31:19;95400.00;;;13.16;45.87
28626;BME280;18905;42.668;23.364;2024-02-04T12:33:56;95392.94;;;13.39;44.47
28626;BME280;18905;42.668;23.364;2024-02-04T12:36:30;95396.59;;;12.54;45.77
28626;BME280;18905;42.668;23.364;2024-02-04T12:38:57;95400.91;;;12.59;45.96
28626;BME280;18905;42.668;23.364;2024-02-04T12:41:23;95401.75;;;12.76;46.42
28626;BME280;18905;42.668;23.364;2024-02-04T12:43:54;95399.13;;;12.98;45.68
28626;BME280;18905;42.668;23.364;2024-02-04T12:46:19;95380.22;;;12.89;45.93
28626;BME280;18905;42.668;23.364;2024-02-04T12:48:50;95395.16;;;13.23;45.12
28626;BME280;18905;42.668;23.364;2024-02-04T12:51:30;95389.50;;;13.13;45.08
28626;BME280;18905;42.668;23.364;2024-02-04T12:54:22;95396.16;;;13.05;45.02
28626;BME280;18905;42.668;23.364;2024-02-04T12:59:29;95386.44;;;12.36;46.98
28626;BME280;18905;42.668;23.364;2024-02-04T13:01:59;95373.72;;;12.03;46.96
28626;BME280;18905;42.668;23.364;2024-02-04T13:04:38;95398.88;;;12.34;47.31
28626;BME280;18905;42.668;23.364;2024-02-04T13:07:22;95404.56;;;12.22;47.63
28626;BME280;18905;42.668;23.364;2024-02-04T13:10:00;95403.00;;;12.57;47.05
28626;BME280;18905;42.668;23.364;2024-02-04T13:12:25;95399.59;;;12.48;46.49
28626;BME280;18905;42.668;23.364;2024-02-04T13:14:51;95410.03;;;12.20;47.09